sensor_id;sensor_type;location;lat;lon;timestamp;temperature;humidity
45044;DHT22;30784;48.490;9.688;2022-07-29T00:01:49;21.40;60.20
45044;DHT22;30784;48.490;9.688;2022-07-29T00:04:15;21.40;60.20
45044;DHT22;30784;48.490;9.688;2022-07-29T00:06:41;21.40;60.40
45044;DHT22;30784;48.490;9.688;2022-07-29T00:09:06;21.40;60.40
45044;DHT22;30784;48.490;9.688;2022-07-29T00:11:32;21.40;60.90
45044;DHT22;30784;48.490;9.688;2022-07-29T00:13:58;21.40;60.60
45044;DHT22;30784;48.490;9.688;2022-07-29T00:16:24;21.40;61.00
45044;DHT22;30784;48.490;9.688;2022-07-29T00:18:49;21.30;61.10
45044;DHT22;30784;48.490;9.688;2022-07-29T00:21:15;21.30;61.10
45044;DHT22;30784;48.490;9.688;2022-07-29T00:23:41;21.20;61.10
45044;DHT22;30784;48.490;9.688;2022-07-29T00:26:06;21.20;61.30
45044;DHT22;30784;48.490;9.688;2022-07-29T00:28:32;21.20;61.50
45044;DHT22;30784;48.490;9.688;2022-07-29T00:30:58;21.10;61.60
45044;DHT22;30784;48.490;9.688;2022-07-29T00:33:23;21.10;61.90
45044;DHT22;30784;48.490;9.688;2022-07-29T00:35:49;21.10;61.90
45044;DHT22;30784;48.490;9.688;2022-07-29T00:38:17;21.00;62.30
45044;DHT22;30784;48.490;9.688;2022-07-29T00:40:44;21.00;62.20
45044;DHT22;30784;48.490;9.688;2022-07-29T00:43:10;20.90;62.90
45044;DHT22;30784;48.490;9.688;2022-07-29T00:45:36;20.90;62.50
45044;DHT22;30784;48.490;9.688;2022-07-29T00:48:02;20.90;62.30
45044;DHT22;30784;48.490;9.688;2022-07-29T00:50:31;20.80;62.60
45044;DHT22;30784;48.490;9.688;2022-07-29T00:52:58;20.90;62.80
45044;DHT22;30784;48.490;9.688;2022-07-29T00:55:24;20.80;62.80
45044;DHT22;30784;48.490;9.688;2022-07-29T00:57:50;20.80;62.80
45044;DHT22;30784;48.490;9.688;2022-07-29T01:00:21;20.80;62.90
45044;DHT22;30784;48.490;9.688;2022-07-29T01:02:47;20.80;62.80
45044;DHT22;30784;48.490;9.688;2022-07-29T01:05:21;20.80;62.90
45044;DHT22;30784;48.490;9.688;2022-07-29T01:07:51;20.80;62.90
45044;DHT22;30784;48.490;9.688;2022-07-29T01:10:18;20.80;63.00
45044;DHT22;30784;48.490;9.688;2022-07-29T01:12:49;20.70;63.10
45044;DHT22;30784;48.490;9.688;2022-07-29T01:15:15;20.70;63.20
45044;DHT22;30784;48.490;9.688;2022-07-29T01:21:39;20.70;62.90
45044;DHT22;30784;48.490;9.688;2022-07-29T01:27:01;20.60;63.20
45044;DHT22;30784;48.490;9.688;2022-07-29T01:29:30;20.60;63.60
45044;DHT22;30784;48.490;9.688;2022-07-29T01:32:17;20.60;63.80
45044;DHT22;30784;48.490;9.688;2022-07-29T01:34:51;20.50;63.50
45044;DHT22;30784;48.490;9.688;2022-07-29T01:43:02;20.50;63.70
45044;DHT22;30784;48.490;9.688;2022-07-29T01:45:41;20.50;63.90
45044;DHT22;30784;48.490;9.688;2022-07-29T01:48:24;20.50;63.60
45044;DHT22;30784;48.490;9.688;2022-07-29T01:51:09;20.50;63.70
45044;DHT22;30784;48.490;9.688;2022-07-29T01:53:50;20.50;63.60
45044;DHT22;30784;48.490;9.688;2022-07-29T01:56:19;20.50;64.00
45044;DHT22;30784;48.490;9.688;2022-07-29T01:58:45;20.50;63.90
45044;DHT22;30784;48.490;9.688;2022-07-29T02:01:13;20.50;63.90
45044;DHT22;30784;48.490;9.688;2022-07-29T02:03:45;20.50;64.00
45044;DHT22;30784;48.490;9.688;2022-07-29T02:06:12;20.50;64.00
45044;DHT22;30784;48.490;9.688;2022-07-29T02:08:40;20.50;64.20
45044;DHT22;30784;48.490;9.688;2022-07-29T02:11:07;20.50;64.40
45044;DHT22;30784;48.490;9.688;2022-07-29T02:13:35;20.50;64.40
45044;DHT22;30784;48.490;9.688;2022-07-29T02:16:02;20.50;64.40
45044;DHT22;30784;48.490;9.688;2022-07-29T02:18:30;20.50;64.30
45044;DHT22;30784;48.490;9.688;2022-07-29T02:20:56;20.40;64.30
45044;DHT22;30784;48.490;9.688;2022-07-29T02:23:24;20.50;64.20
45044;DHT22;30784;48.490;9.688;2022-07-29T02:25:56;20.50;64.20
45044;DHT22;30784;48.490;9.688;2022-07-29T02:28:27;20.50;64.00
45044;DHT22;30784;48.490;9.688;2022-07-29T02:30:56;20.50;64.10
45044;DHT22;30784;48.490;9.688;2022-07-29T02:33:23;20.40;64.00
45044;DHT22;30784;48.490;9.688;2022-07-29T02:35:50;20.40;64.00
45044;DHT22;30784;48.490;9.688;2022-07-29T02:38:16;20.40;63.80
45044;DHT22;30784;48.490;9.688;2022-07-29T02:41:05;20.40;63.80
45044;DHT22;30784;48.490;9.688;2022-07-29T02:43:34;20.30;63.60
45044;DHT22;30784;48.490;9.688;2022-07-29T02:46:03;20.30;63.60
45044;DHT22;30784;48.490;9.688;2022-07-29T02:48:37;20.30;63.60
45044;DHT22;30784;48.490;9.688;2022-07-29T02:51:12;20.30;63.50
45044;DHT22;30784;48.490;9.688;2022-07-29T02:53:41;20.20;63.40
45044;DHT22;30784;48.490;9.688;2022-07-29T02:56:12;20.30;63.20
45044;DHT22;30784;48.490;9.688;2022-07-29T02:58:41;20.20;63.10
45044;DHT22;30784;48.490;9.688;2022-07-29T03:01:21;20.20;63.00
45044;DHT22;30784;48.490;9.688;2022-07-29T03:03:48;20.20;63.40
45044;DHT22;30784;48.490;9.688;2022-07-29T03:06:15;20.20;62.60
45044;DHT22;30784;48.490;9.688;2022-07-29T03:08:41;20.20;62.50
45044;DHT22;30784;48.490;9.688;2022-07-29T03:11:08;20.20;62.50
45044;DHT22;30784;48.490;9.688;2022-07-29T03:13:35;20.20;62.40
45044;DHT22;30784;48.490;9.688;2022-07-29T03:16:01;20.20;62.40
45044;DHT22;30784;48.490;9.688;2022-07-29T03:18:26;20.20;62.20
45044;DHT22;30784;48.490;9.688;2022-07-29T03:20:52;20.10;62.10
45044;DHT22;30784;48.490;9.688;2022-07-29T03:23:19;20.10;62.00
45044;DHT22;30784;48.490;9.688;2022-07-29T03:25:46;20.10;62.00
45044;DHT22;30784;48.490;9.688;2022-07-29T03:28:12;20.10;62.10
45044;DHT22;30784;48.490;9.688;2022-07-29T03:30:37;20.10;62.00
45044;DHT22;30784;48.490;9.688;2022-07-29T03:33:03;20.10;62.00
45044;DHT22;30784;48.490;9.688;2022-07-29T03:35:28;20.10;62.00
45044;DHT22;30784;48.490;9.688;2022-07-29T03:37:57;20.10;62.00
45044;DHT22;30784;48.490;9.688;2022-07-29T03:43:06;20.00;61.90
45044;DHT22;30784;48.490;9.688;2022-07-29T03:45:33;20.00;61.80
45044;DHT22;30784;48.490;9.688;2022-07-29T03:48:07;20.00;61.80
45044;DHT22;30784;48.490;9.688;2022-07-29T03:50:33;20.00;61.80
45044;DHT22;30784;48.490;9.688;2022-07-29T03:53:01;19.90;61.80
45044;DHT22;30784;48.490;9.688;2022-07-29T03:55:29;19.90;61.90
45044;DHT22;30784;48.490;9.688;2022-07-29T03:57:57;19.90;61.80
45044;DHT22;30784;48.490;9.688;2022-07-29T04:00:24;19.90;61.90
45044;DHT22;30784;48.490;9.688;2022-07-29T04:02:50;19.80;61.90
45044;DHT22;30784;48.490;9.688;2022-07-29T04:05:17;19.80;62.00
45044;DHT22;30784;48.490;9.688;2022-07-29T04:07:46;19.80;62.10
45044;DHT22;30784;48.490;9.688;2022-07-29T04:10:13;19.70;62.10
45044;DHT22;30784;48.490;9.688;2022-07-29T04:12:40;19.80;62.20
45044;DHT22;30784;48.490;9.688;2022-07-29T04:15:06;19.70;62.20
45044;DHT22;30784;48.490;9.688;2022-07-29T04:17:32;19.70;62.30
45044;DHT22;30784;48.490;9.688;2022-07-29T04:19:58;19.70;62.30
45044;DHT22;30784;48.490;9.688;2022-07-29T04:22:24;19.70;62.20
45044;DHT22;30784;48.490;9.688;2022-07-29T04:24:49;19.70;62.80
45044;DHT22;30784;48.490;9.688;2022-07-29T04:27:15;19.70;62.30
45044;DHT22;30784;48.490;9.688;2022-07-29T04:29:40;19.70;62.40
45044;DHT22;30784;48.490;9.688;2022-07-29T04:32:06;19.60;62.40
45044;DHT22;30784;48.490;9.688;2022-07-29T04:34:32;19.70;62.50
45044;DHT22;30784;48.490;9.688;2022-07-29T04:36:57;19.60;62.60
45044;DHT22;30784;48.490;9.688;2022-07-29T04:39:23;19.60;62.60
45044;DHT22;30784;48.490;9.688;2022-07-29T04:41:49;19.70;62.70
45044;DHT22;30784;48.490;9.688;2022-07-29T04:44:16;19.70;62.70
45044;DHT22;30784;48.490;9.688;2022-07-29T04:46:41;19.70;62.70
45044;DHT22;30784;48.490;9.688;2022-07-29T04:49:07;19.70;62.70
45044;DHT22;30784;48.490;9.688;2022-07-29T04:51:33;19.70;62.70
45044;DHT22;30784;48.490;9.688;2022-07-29T04:53:59;19.80;62.80
45044;DHT22;30784;48.490;9.688;2022-07-29T04:56:25;19.70;62.70
45044;DHT22;30784;48.490;9.688;2022-07-29T04:58:50;19.80;62.80
45044;DHT22;30784;48.490;9.688;2022-07-29T05:01:16;19.80;62.80
45044;DHT22;30784;48.490;9.688;2022-07-29T05:03:42;19.80;62.80
45044;DHT22;30784;48.490;9.688;2022-07-29T05:06:07;19.90;62.90
45044;DHT22;30784;48.490;9.688;2022-07-29T05:08:33;19.90;62.80
45044;DHT22;30784;48.490;9.688;2022-07-29T05:10:58;20.00;62.90
45044;DHT22;30784;48.490;9.688;2022-07-29T05:13:24;20.00;62.90
45044;DHT22;30784;48.490;9.688;2022-07-29T05:15:50;20.00;62.90
45044;DHT22;30784;48.490;9.688;2022-07-29T05:18:15;20.10;62.90
45044;DHT22;30784;48.490;9.688;2022-07-29T05:20:41;20.10;62.80
45044;DHT22;30784;48.490;9.688;2022-07-29T05:23:07;20.20;62.80
45044;DHT22;30784;48.490;9.688;2022-07-29T05:25:33;20.30;62.80
45044;DHT22;30784;48.490;9.688;2022-07-29T05:27:58;20.30;62.70
45044;DHT22;30784;48.490;9.688;2022-07-29T05:30:24;20.40;62.70
45044;DHT22;30784;48.490;9.688;2022-07-29T05:32:50;20.40;62.70
45044;DHT22;30784;48.490;9.688;2022-07-29T05:35:16;20.50;62.70
45044;DHT22;30784;48.490;9.688;2022-07-29T05:37:41;20.50;62.60
45044;DHT22;30784;48.490;9.688;2022-07-29T05:40:09;20.50;62.60
45044;DHT22;30784;48.490;9.688;2022-07-29T05:42:35;20.60;62.70
45044;DHT22;30784;48.490;9.688;2022-07-29T05:45:02;20.70;62.80
45044;DHT22;30784;48.490;9.688;2022-07-29T05:47:28;20.80;62.90
45044;DHT22;30784;48.490;9.688;2022-07-29T05:49:54;20.80;62.80
45044;DHT22;30784;48.490;9.688;2022-07-29T05:52:20;20.90;62.80
45044;DHT22;30784;48.490;9.688;2022-07-29T05:54:45;20.90;62.70
45044;DHT22;30784;48.490;9.688;2022-07-29T05:57:18;21.00;62.60
45044;DHT22;30784;48.490;9.688;2022-07-29T05:59:44;21.10;62.50
45044;DHT22;30784;48.490;9.688;2022-07-29T06:02:10;21.20;62.50
45044;DHT22;30784;48.490;9.688;2022-07-29T06:04:36;21.20;62.30
45044;DHT22;30784;48.490;9.688;2022-07-29T06:07:02;21.30;62.30
45044;DHT22;30784;48.490;9.688;2022-07-29T06:09:28;21.40;62.20
45044;DHT22;30784;48.490;9.688;2022-07-29T06:11:54;21.50;62.00
45044;DHT22;30784;48.490;9.688;2022-07-29T06:14:20;21.50;61.90
45044;DHT22;30784;48.490;9.688;2022-07-29T06:16:45;21.60;61.90
45044;DHT22;30784;48.490;9.688;2022-07-29T06:19:11;21.60;61.70
45044;DHT22;30784;48.490;9.688;2022-07-29T06:21:44;21.70;61.60
45044;DHT22;30784;48.490;9.688;2022-07-29T06:24:14;21.80;61.60
45044;DHT22;30784;48.490;9.688;2022-07-29T06:26:41;21.80;61.40
45044;DHT22;30784;48.490;9.688;2022-07-29T06:29:07;21.90;61.40
45044;DHT22;30784;48.490;9.688;2022-07-29T06:31:33;21.90;61.20
45044;DHT22;30784;48.490;9.688;2022-07-29T06:33:59;22.00;61.10
45044;DHT22;30784;48.490;9.688;2022-07-29T06:36:25;22.00;61.00
45044;DHT22;30784;48.490;9.688;2022-07-29T06:38:50;22.10;60.80
45044;DHT22;30784;48.490;9.688;2022-07-29T06:41:16;22.20;60.70
45044;DHT22;30784;48.490;9.688;2022-07-29T06:43:43;22.20;60.20
45044;DHT22;30784;48.490;9.688;2022-07-29T06:46:14;22.20;59.90
45044;DHT22;30784;48.490;9.688;2022-07-29T06:48:41;22.30;59.90
45044;DHT22;30784;48.490;9.688;2022-07-29T06:51:10;22.30;59.70
45044;DHT22;30784;48.490;9.688;2022-07-29T06:53:37;22.30;59.40
45044;DHT22;30784;48.490;9.688;2022-07-29T06:56:04;22.40;59.50
45044;DHT22;30784;48.490;9.688;2022-07-29T06:58:30;22.50;59.40
45044;DHT22;30784;48.490;9.688;2022-07-29T07:00:57;22.50;59.40
45044;DHT22;30784;48.490;9.688;2022-07-29T07:03:24;22.60;59.40
45044;DHT22;30784;48.490;9.688;2022-07-29T07:05:50;22.70;59.10
45044;DHT22;30784;48.490;9.688;2022-07-29T07:08:16;22.80;59.00
45044;DHT22;30784;48.490;9.688;2022-07-29T07:10:42;23.00;59.10
45044;DHT22;30784;48.490;9.688;2022-07-29T07:13:08;23.10;58.60
45044;DHT22;30784;48.490;9.688;2022-07-29T07:15:35;23.30;57.90
45044;DHT22;30784;48.490;9.688;2022-07-29T07:18:02;23.50;57.70
45044;DHT22;30784;48.490;9.688;2022-07-29T07:20:27;23.60;57.30
45044;DHT22;30784;48.490;9.688;2022-07-29T07:22:53;23.80;57.30
45044;DHT22;30784;48.490;9.688;2022-07-29T07:25:19;23.90;57.30
45044;DHT22;30784;48.490;9.688;2022-07-29T07:27:44;24.00;56.90
45044;DHT22;30784;48.490;9.688;2022-07-29T07:30:11;24.20;56.70
45044;DHT22;30784;48.490;9.688;2022-07-29T07:32:36;24.30;56.60
45044;DHT22;30784;48.490;9.688;2022-07-29T07:35:06;24.40;55.90
45044;DHT22;30784;48.490;9.688;2022-07-29T07:37:33;24.50;55.80
45044;DHT22;30784;48.490;9.688;2022-07-29T07:39:59;24.60;55.20
45044;DHT22;30784;48.490;9.688;2022-07-29T07:42:25;24.70;53.80
45044;DHT22;30784;48.490;9.688;2022-07-29T07:44:50;24.80;54.00
45044;DHT22;30784;48.490;9.688;2022-07-29T07:47:16;24.90;53.90
45044;DHT22;30784;48.490;9.688;2022-07-29T07:49:46;25.00;53.40
45044;DHT22;30784;48.490;9.688;2022-07-29T07:52:12;25.10;53.10
45044;DHT22;30784;48.490;9.688;2022-07-29T07:54:37;25.20;52.60
45044;DHT22;30784;48.490;9.688;2022-07-29T07:57:03;25.30;51.70
45044;DHT22;30784;48.490;9.688;2022-07-29T07:59:29;25.40;51.80
45044;DHT22;30784;48.490;9.688;2022-07-29T08:01:54;25.50;51.00
45044;DHT22;30784;48.490;9.688;2022-07-29T08:04:20;25.50;50.40
45044;DHT22;30784;48.490;9.688;2022-07-29T08:06:46;25.60;49.60
45044;DHT22;30784;48.490;9.688;2022-07-29T08:09:11;25.60;49.60
45044;DHT22;30784;48.490;9.688;2022-07-29T08:11:37;25.70;50.00
45044;DHT22;30784;48.490;9.688;2022-07-29T08:14:03;25.80;49.10
45044;DHT22;30784;48.490;9.688;2022-07-29T08:16:28;25.90;48.40
45044;DHT22;30784;48.490;9.688;2022-07-29T08:18:54;26.00;48.50
45044;DHT22;30784;48.490;9.688;2022-07-29T08:21:22;26.00;47.80
45044;DHT22;30784;48.490;9.688;2022-07-29T08:23:48;26.20;47.80
45044;DHT22;30784;48.490;9.688;2022-07-29T08:26:16;26.30;47.50
45044;DHT22;30784;48.490;9.688;2022-07-29T08:28:43;26.30;47.20
45044;DHT22;30784;48.490;9.688;2022-07-29T08:31:15;26.50;47.30
45044;DHT22;30784;48.490;9.688;2022-07-29T08:33:40;26.60;47.40
45044;DHT22;30784;48.490;9.688;2022-07-29T08:36:06;26.70;47.40
45044;DHT22;30784;48.490;9.688;2022-07-29T08:38:32;26.80;46.20
45044;DHT22;30784;48.490;9.688;2022-07-29T08:41:00;27.00;46.60
45044;DHT22;30784;48.490;9.688;2022-07-29T08:43:27;27.10;46.60
45044;DHT22;30784;48.490;9.688;2022-07-29T08:45:53;27.20;46.00
45044;DHT22;30784;48.490;9.688;2022-07-29T08:48:22;27.40;45.80
45044;DHT22;30784;48.490;9.688;2022-07-29T08:50:50;27.50;45.10
45044;DHT22;30784;48.490;9.688;2022-07-29T08:53:18;27.70;44.80
45044;DHT22;30784;48.490;9.688;2022-07-29T08:55:46;27.80;45.00
45044;DHT22;30784;48.490;9.688;2022-07-29T08:58:14;28.00;44.40
45044;DHT22;30784;48.490;9.688;2022-07-29T09:00:52;28.20;44.00
45044;DHT22;30784;48.490;9.688;2022-07-29T09:03:20;28.30;44.00
45044;DHT22;30784;48.490;9.688;2022-07-29T09:05:46;28.50;42.50
45044;DHT22;30784;48.490;9.688;2022-07-29T09:08:16;28.70;42.90
45044;DHT22;30784;48.490;9.688;2022-07-29T09:10:42;28.90;42.50
45044;DHT22;30784;48.490;9.688;2022-07-29T09:13:08;29.10;42.40
45044;DHT22;30784;48.490;9.688;2022-07-29T09:15:34;29.30;42.20
45044;DHT22;30784;48.490;9.688;2022-07-29T09:17:59;29.40;41.60
45044;DHT22;30784;48.490;9.688;2022-07-29T09:20:26;29.70;41.60
45044;DHT22;30784;48.490;9.688;2022-07-29T09:23:12;29.90;40.80
45044;DHT22;30784;48.490;9.688;2022-07-29T09:25:40;30.20;40.20
45044;DHT22;30784;48.490;9.688;2022-07-29T09:28:16;30.40;39.40
45044;DHT22;30784;48.490;9.688;2022-07-29T09:30:56;30.60;40.30
45044;DHT22;30784;48.490;9.688;2022-07-29T09:33:23;30.80;39.80
45044;DHT22;30784;48.490;9.688;2022-07-29T09:36:05;31.00;38.40
45044;DHT22;30784;48.490;9.688;2022-07-29T09:38:32;31.10;38.90
45044;DHT22;30784;48.490;9.688;2022-07-29T09:41:00;31.40;37.70
45044;DHT22;30784;48.490;9.688;2022-07-29T09:43:27;31.50;37.10
45044;DHT22;30784;48.490;9.688;2022-07-29T09:45:52;31.70;37.00
45044;DHT22;30784;48.490;9.688;2022-07-29T09:48:20;31.90;36.60
45044;DHT22;30784;48.490;9.688;2022-07-29T09:50:47;32.00;36.30
45044;DHT22;30784;48.490;9.688;2022-07-29T09:53:31;32.30;36.30
45044;DHT22;30784;48.490;9.688;2022-07-29T09:55:58;32.50;36.30
45044;DHT22;30784;48.490;9.688;2022-07-29T09:58:24;32.60;34.50
45044;DHT22;30784;48.490;9.688;2022-07-29T10:00:51;32.70;34.20
45044;DHT22;30784;48.490;9.688;2022-07-29T10:03:18;32.70;33.90
45044;DHT22;30784;48.490;9.688;2022-07-29T10:05:45;32.80;33.80
45044;DHT22;30784;48.490;9.688;2022-07-29T10:08:11;32.80;32.90
45044;DHT22;30784;48.490;9.688;2022-07-29T10:10:42;32.90;32.60
45044;DHT22;30784;48.490;9.688;2022-07-29T10:13:09;32.90;32.20
45044;DHT22;30784;48.490;9.688;2022-07-29T10:15:38;32.90;32.10
45044;DHT22;30784;48.490;9.688;2022-07-29T10:18:07;32.90;32.00
45044;DHT22;30784;48.490;9.688;2022-07-29T10:20:33;32.90;31.70
45044;DHT22;30784;48.490;9.688;2022-07-29T10:22:59;32.90;31.20
45044;DHT22;30784;48.490;9.688;2022-07-29T10:25:27;32.90;31.40
45044;DHT22;30784;48.490;9.688;2022-07-29T10:27:54;33.00;31.10
45044;DHT22;30784;48.490;9.688;2022-07-29T10:30:21;33.10;30.50
45044;DHT22;30784;48.490;9.688;2022-07-29T10:38:34;33.30;30.50
45044;DHT22;30784;48.490;9.688;2022-07-29T10:44:12;33.40;29.90
45044;DHT22;30784;48.490;9.688;2022-07-29T10:46:39;33.50;30.40
45044;DHT22;30784;48.490;9.688;2022-07-29T10:49:10;33.50;29.80
45044;DHT22;30784;48.490;9.688;2022-07-29T10:54:50;33.40;29.70
45044;DHT22;30784;48.490;9.688;2022-07-29T10:57:27;33.40;29.70
45044;DHT22;30784;48.490;9.688;2022-07-29T11:05:04;33.20;29.60
45044;DHT22;30784;48.490;9.688;2022-07-29T11:07:32;33.00;29.70
45044;DHT22;30784;48.490;9.688;2022-07-29T11:15:16;32.50;29.90
45044;DHT22;30784;48.490;9.688;2022-07-29T11:20:44;32.10;30.20
45044;DHT22;30784;48.490;9.688;2022-07-29T11:23:34;31.90;30.00
45044;DHT22;30784;48.490;9.688;2022-07-29T11:47:24;29.50;38.80
45044;DHT22;30784;48.490;9.688;2022-07-29T11:49:57;29.20;39.90
45044;DHT22;30784;48.490;9.688;2022-07-29T11:52:23;29.00;40.00
45044;DHT22;30784;48.490;9.688;2022-07-29T11:54:57;28.80;40.70
45044;DHT22;30784;48.490;9.688;2022-07-29T11:57:28;28.60;40.80
45044;DHT22;30784;48.490;9.688;2022-07-29T11:59:55;28.40;40.30
45044;DHT22;30784;48.490;9.688;2022-07-29T12:02:23;28.30;40.70
45044;DHT22;30784;48.490;9.688;2022-07-29T12:04:55;28.10;40.10
45044;DHT22;30784;48.490;9.688;2022-07-29T12:07:32;27.90;40.30
45044;DHT22;30784;48.490;9.688;2022-07-29T12:09:58;27.70;40.30
45044;DHT22;30784;48.490;9.688;2022-07-29T12:12:24;27.60;40.30
45044;DHT22;30784;48.490;9.688;2022-07-29T12:14:50;27.50;40.80
45044;DHT22;30784;48.490;9.688;2022-07-29T12:17:33;27.40;41.20
45044;DHT22;30784;48.490;9.688;2022-07-29T12:20:01;27.30;40.70
45044;DHT22;30784;48.490;9.688;2022-07-29T12:22:30;27.30;42.30
45044;DHT22;30784;48.490;9.688;2022-07-29T12:25:01;27.30;42.90
45044;DHT22;30784;48.490;9.688;2022-07-29T12:27:28;27.20;41.80
45044;DHT22;30784;48.490;9.688;2022-07-29T12:30:03;27.20;41.90
45044;DHT22;30784;48.490;9.688;2022-07-29T12:32:36;27.20;41.70
45044;DHT22;30784;48.490;9.688;2022-07-29T12:35:04;27.20;42.00
45044;DHT22;30784;48.490;9.688;2022-07-29T12:37:32;27.20;42.20
45044;DHT22;30784;48.490;9.688;2022-07-29T12:39:57;27.20;42.00
45044;DHT22;30784;48.490;9.688;2022-07-29T12:42:23;27.20;43.00
45044;DHT22;30784;48.490;9.688;2022-07-29T12:44:50;27.20;43.60
45044;DHT22;30784;48.490;9.688;2022-07-29T12:47:17;27.10;44.30
45044;DHT22;30784;48.490;9.688;2022-07-29T12:49:44;26.90;44.30
45044;DHT22;30784;48.490;9.688;2022-07-29T12:52:31;26.70;44.00
45044;DHT22;30784;48.490;9.688;2022-07-29T12:54:57;26.50;43.90
45044;DHT22;30784;48.490;9.688;2022-07-29T12:57:23;26.30;45.20
45044;DHT22;30784;48.490;9.688;2022-07-29T13:00:08;26.10;45.60
45044;DHT22;30784;48.490;9.688;2022-07-29T13:02:36;25.90;45.30
45044;DHT22;30784;48.490;9.688;2022-07-29T13:05:03;25.60;46.10
45044;DHT22;30784;48.490;9.688;2022-07-29T13:07:30;25.40;46.80
45044;DHT22;30784;48.490;9.688;2022-07-29T13:10:17;25.30;47.20
45044;DHT22;30784;48.490;9.688;2022-07-29T13:13:12;25.20;46.30
45044;DHT22;30784;48.490;9.688;2022-07-29T13:15:42;25.10;46.40
45044;DHT22;30784;48.490;9.688;2022-07-29T13:18:32;25.10;48.00
45044;DHT22;30784;48.490;9.688;2022-07-29T13:21:14;25.10;47.30
45044;DHT22;30784;48.490;9.688;2022-07-29T13:23:40;25.10;48.30
45044;DHT22;30784;48.490;9.688;2022-07-29T13:26:09;25.20;49.60
45044;DHT22;30784;48.490;9.688;2022-07-29T13:28:36;25.20;49.00
45044;DHT22;30784;48.490;9.688;2022-07-29T13:31:02;25.30;49.00
45044;DHT22;30784;48.490;9.688;2022-07-29T13:33:28;25.30;49.30
45044;DHT22;30784;48.490;9.688;2022-07-29T13:35:54;25.40;49.60
45044;DHT22;30784;48.490;9.688;2022-07-29T13:38:19;25.40;50.00
45044;DHT22;30784;48.490;9.688;2022-07-29T13:40:45;25.50;50.80
45044;DHT22;30784;48.490;9.688;2022-07-29T13:43:11;25.60;50.30
45044;DHT22;30784;48.490;9.688;2022-07-29T13:45:37;25.70;50.10
45044;DHT22;30784;48.490;9.688;2022-07-29T13:48:03;25.80;49.80
45044;DHT22;30784;48.490;9.688;2022-07-29T13:50:29;25.90;50.40
45044;DHT22;30784;48.490;9.688;2022-07-29T13:52:54;26.00;50.30
45044;DHT22;30784;48.490;9.688;2022-07-29T13:55:20;26.10;50.00
45044;DHT22;30784;48.490;9.688;2022-07-29T13:57:46;26.20;49.70
45044;DHT22;30784;48.490;9.688;2022-07-29T14:00:13;26.20;49.50
45044;DHT22;30784;48.490;9.688;2022-07-29T14:02:40;26.30;49.40
45044;DHT22;30784;48.490;9.688;2022-07-29T14:05:06;26.40;49.30
45044;DHT22;30784;48.490;9.688;2022-07-29T14:07:32;26.40;48.80
45044;DHT22;30784;48.490;9.688;2022-07-29T14:09:57;26.40;48.30
45044;DHT22;30784;48.490;9.688;2022-07-29T14:12:23;26.50;47.80
45044;DHT22;30784;48.490;9.688;2022-07-29T14:14:48;26.50;47.80
45044;DHT22;30784;48.490;9.688;2022-07-29T14:17:15;26.50;48.00
45044;DHT22;30784;48.490;9.688;2022-07-29T14:19:41;26.50;47.80
45044;DHT22;30784;48.490;9.688;2022-07-29T14:22:07;26.60;48.40
45044;DHT22;30784;48.490;9.688;2022-07-29T14:24:33;26.50;48.60
45044;DHT22;30784;48.490;9.688;2022-07-29T14:26:59;26.50;49.00
45044;DHT22;30784;48.490;9.688;2022-07-29T14:29:25;26.50;49.00
45044;DHT22;30784;48.490;9.688;2022-07-29T14:31:51;26.40;48.90
45044;DHT22;30784;48.490;9.688;2022-07-29T14:34:16;26.30;49.00
45044;DHT22;30784;48.490;9.688;2022-07-29T14:36:42;26.20;49.50
45044;DHT22;30784;48.490;9.688;2022-07-29T14:39:08;26.10;49.10
45044;DHT22;30784;48.490;9.688;2022-07-29T14:41:34;26.00;49.20
45044;DHT22;30784;48.490;9.688;2022-07-29T14:43:59;25.90;49.40
45044;DHT22;30784;48.490;9.688;2022-07-29T14:46:26;25.80;49.70
45044;DHT22;30784;48.490;9.688;2022-07-29T14:48:52;25.70;50.00
45044;DHT22;30784;48.490;9.688;2022-07-29T14:51:18;25.60;50.00
45044;DHT22;30784;48.490;9.688;2022-07-29T14:53:43;25.50;50.20
45044;DHT22;30784;48.490;9.688;2022-07-29T14:56:09;25.40;50.30
45044;DHT22;30784;48.490;9.688;2022-07-29T14:58:35;25.40;50.40
45044;DHT22;30784;48.490;9.688;2022-07-29T15:01:02;25.30;50.50
45044;DHT22;30784;48.490;9.688;2022-07-29T15:03:28;25.20;50.30
45044;DHT22;30784;48.490;9.688;2022-07-29T15:05:54;25.10;50.40
45044;DHT22;30784;48.490;9.688;2022-07-29T15:08:20;25.10;50.30
45044;DHT22;30784;48.490;9.688;2022-07-29T15:10:46;25.00;50.40
45044;DHT22;30784;48.490;9.688;2022-07-29T15:13:11;25.00;50.90
45044;DHT22;30784;48.490;9.688;2022-07-29T15:15:37;24.90;51.20
45044;DHT22;30784;48.490;9.688;2022-07-29T15:18:03;24.90;51.80
45044;DHT22;30784;48.490;9.688;2022-07-29T15:20:29;24.80;51.90
45044;DHT22;30784;48.490;9.688;2022-07-29T15:22:55;24.70;52.10
45044;DHT22;30784;48.490;9.688;2022-07-29T15:25:22;24.70;52.10
45044;DHT22;30784;48.490;9.688;2022-07-29T15:27:48;24.70;52.20
45044;DHT22;30784;48.490;9.688;2022-07-29T15:30:13;24.60;52.30
45044;DHT22;30784;48.490;9.688;2022-07-29T15:32:42;24.70;52.50
45044;DHT22;30784;48.490;9.688;2022-07-29T15:35:08;24.60;52.70
45044;DHT22;30784;48.490;9.688;2022-07-29T15:37:39;24.60;53.00
45044;DHT22;30784;48.490;9.688;2022-07-29T15:40:06;24.60;53.10
45044;DHT22;30784;48.490;9.688;2022-07-29T15:42:31;24.60;53.40
45044;DHT22;30784;48.490;9.688;2022-07-29T15:44:57;24.50;53.60
45044;DHT22;30784;48.490;9.688;2022-07-29T15:47:23;24.50;53.70
45044;DHT22;30784;48.490;9.688;2022-07-29T15:49:49;24.40;53.60
45044;DHT22;30784;48.490;9.688;2022-07-29T15:52:19;24.50;53.50
45044;DHT22;30784;48.490;9.688;2022-07-29T15:54:44;24.40;53.70
45044;DHT22;30784;48.490;9.688;2022-07-29T15:57:10;24.50;53.50
45044;DHT22;30784;48.490;9.688;2022-07-29T15:59:36;24.40;53.40
45044;DHT22;30784;48.490;9.688;2022-07-29T16:02:02;24.40;53.50
45044;DHT22;30784;48.490;9.688;2022-07-29T16:04:28;24.40;53.40
45044;DHT22;30784;48.490;9.688;2022-07-29T16:06:54;24.40;53.30
45044;DHT22;30784;48.490;9.688;2022-07-29T16:09:19;24.40;53.40
45044;DHT22;30784;48.490;9.688;2022-07-29T16:11:45;24.40;53.60
45044;DHT22;30784;48.490;9.688;2022-07-29T16:14:12;24.50;53.90
45044;DHT22;30784;48.490;9.688;2022-07-29T16:16:38;24.50;53.90
45044;DHT22;30784;48.490;9.688;2022-07-29T16:19:04;24.50;53.90
45044;DHT22;30784;48.490;9.688;2022-07-29T16:21:31;24.50;54.40
45044;DHT22;30784;48.490;9.688;2022-07-29T16:23:58;24.50;54.00
45044;DHT22;30784;48.490;9.688;2022-07-29T16:26:25;24.50;54.30
45044;DHT22;30784;48.490;9.688;2022-07-29T16:28:50;24.50;54.50
45044;DHT22;30784;48.490;9.688;2022-07-29T16:31:16;24.40;54.70
45044;DHT22;30784;48.490;9.688;2022-07-29T16:33:42;24.40;54.60
45044;DHT22;30784;48.490;9.688;2022-07-29T16:36:08;24.40;54.70